Time,TemperatureF,DewpointF,PressureIn,WindDirection,WindDirectionDegrees,WindSpeedMPH,WindSpeedGustMPH,Humidity,HourlyPrecipIn,Conditions,Clouds,dailyrainin,SoftwareType,DateUTC
2013-07-14 00:02:00,75.0,71.0,-100.00,SE,138,5.0,6.0,88,-99.99,,,-99.99,,2013-07-14 04:02:00,
2013-07-14 00:11:00,76.0,72.0,-100.00,SE,143,6.0,7.0,87,-99.99,,,-99.99,,2013-07-14 04:11:00,
2013-07-14 00:22:00,76.0,72.0,-100.00,SSE,149,7.0,11.0,86,-99.99,,,-99.99,,2013-07-14 04:22:00,
2013-07-14 00:32:00,77.0,72.0,-100.00,SE,143,5.0,10.0,86,-99.99,,,-99.99,,2013-07-14 04:32:00,
2013-07-14 00:42:00,77.0,72.0,-100.00,SE,143,7.0,11.0,86,-99.99,,,-99.99,,2013-07-14 04:42:00,
2013-07-14 00:53:00,77.0,72.0,-100.00,SSE,149,6.0,11.0,85,-99.99,,,-99.99,,2013-07-14 04:53:00,
2013-07-14 01:02:00,77.0,72.0,-100.00,SE,142,5.0,12.0,85,-99.99,,,-99.99,,2013-07-14 05:02:00,
2013-07-14 01:11:00,77.0,71.0,-100.00,SSE,166,8.0,16.0,82,-99.99,,,-99.99,,2013-07-14 05:11:00,
2013-07-14 01:23:00,77.0,71.0,-100.00,SSW,193,6.0,12.0,83,-99.99,,,-99.99,,2013-07-14 05:23:00,
2013-07-14 01:32:00,77.0,71.0,-100.00,South,179,7.0,15.0,82,-99.99,,,-99.99,,2013-07-14 05:32:00,
2013-07-14 01:43:00,78.0,72.0,-100.00,South,188,7.0,15.0,83,-99.99,,,-99.99,,2013-07-14 05:43:00,
2013-07-14 01:53:00,78.0,73.0,-100.00,East,84,6.0,12.0,86,-99.99,,,-99.99,,2013-07-14 05:53:00,
2013-07-14 02:01:00,78.0,73.0,-100.00,South,187,6.0,15.0,86,-99.99,,,-99.99,,2013-07-14 06:01:00,
2013-07-14 02:11:00,78.0,73.0,-100.00,SSE,158,7.0,13.0,86,-99.99,,,-99.99,,2013-07-14 06:11:00,
2013-07-14 02:22:00,78.0,73.0,-100.00,South,172,6.0,16.0,85,-99.99,,,-99.99,,2013-07-14 06:22:00,
2013-07-14 02:32:00,78.0,73.0,-100.00,NE,39,7.0,16.0,85,-99.99,,,-99.99,,2013-07-14 06:32:00,
2013-07-14 02:42:00,78.0,73.0,-100.00,NE,38,9.0,14.0,85,-99.99,,,-99.99,,2013-07-14 06:42:00,
2013-07-14 02:53:00,78.0,73.0,-100.00,SE,138,8.0,15.0,86,-99.99,,,-99.99,,2013-07-14 06:53:00,
2013-07-14 03:02:00,78.0,73.0,-100.00,East,83,10.0,17.0,86,-99.99,,,-99.99,,2013-07-14 07:02:00,
2013-07-14 03:12:00,78.0,72.0,-100.00,East,87,9.0,19.0,83,-99.99,,,-99.99,,2013-07-14 07:12:00,
2013-07-14 03:22:00,77.0,72.0,-100.00,East,89,9.0,21.0,85,-99.99,,,-99.99,,2013-07-14 07:22:00,
2013-07-14 03:33:00,77.0,72.0,-100.00,East,97,8.0,15.0,86,-99.99,,,-99.99,,2013-07-14 07:33:00,
2013-07-14 03:43:00,78.0,73.0,-100.00,ESE,111,7.0,14.0,85,-99.99,,,-99.99,,2013-07-14 07:43:00,
2013-07-14 03:53:00,78.0,74.0,-100.00,East,83,8.0,17.0,87,-99.99,,,-99.99,,2013-07-14 07:53:00,
2013-07-14 04:01:00,77.0,72.0,-100.00,ENE,63,7.0,15.0,85,-99.99,,,-99.99,,2013-07-14 08:01:00,
2013-07-14 04:11:00,77.0,72.0,-100.00,South,177,8.0,19.0,86,-99.99,,,-99.99,,2013-07-14 08:11:00,
2013-07-14 04:22:00,77.0,72.0,-100.00,ESE,111,5.0,9.0,85,-99.99,,,-99.99,,2013-07-14 08:22:00,
2013-07-14 04:32:00,78.0,73.0,-100.00,East,86,6.0,12.0,84,-99.99,,,-99.99,,2013-07-14 08:32:00,
2013-07-14 04:42:00,78.0,73.0,-100.00,ESE,121,6.0,10.0,85,-99.99,,,-99.99,,2013-07-14 08:42:00,
2013-07-14 04:53:00,78.0,72.0,-100.00,ENE,59,6.0,10.0,83,-99.99,,,-99.99,,2013-07-14 08:53:00,
2013-07-14 05:01:00,78.0,73.0,-100.00,ESE,111,6.0,11.0,84,-99.99,,,-99.99,,2013-07-14 09:01:00,
2013-07-14 05:11:00,78.0,73.0,-100.00,South,183,7.0,19.0,85,-99.99,,,-99.99,,2013-07-14 09:11:00,
2013-07-14 05:22:00,78.0,74.0,-100.00,ESE,114,7.0,13.0,87,-99.99,,,-99.99,,2013-07-14 09:22:00,
2013-07-14 05:32:00,77.0,73.0,-100.00,South,176,10.0,23.0,87,-99.99,,,-99.99,,2013-07-14 09:32:00,
2013-07-14 05:42:00,77.0,73.0,-100.00,ESE,117,8.0,18.0,87,-99.99,,,-99.99,,2013-07-14 09:42:00,
2013-07-14 05:52:00,77.0,72.0,-100.00,SSW,195,9.0,22.0,86,-99.99,,,-99.99,,2013-07-14 09:52:00,
2013-07-14 06:01:00,77.0,73.0,-100.00,SSW,193,9.0,21.0,87,-99.99,,,-99.99,,2013-07-14 10:01:00,
2013-07-14 06:12:00,77.0,73.0,-100.00,South,190,12.0,22.0,87,-99.99,,,-99.99,,2013-07-14 10:12:00,
2013-07-14 06:22:00,77.0,72.0,-100.00,SSW,210,8.0,19.0,86,-99.99,,,-99.99,,2013-07-14 10:22:00,
2013-07-14 06:32:00,77.0,72.0,-100.00,South,177,8.0,16.0,84,-99.99,,,-99.99,,2013-07-14 10:32:00,
2013-07-14 06:42:00,77.0,71.0,-100.00,SSW,194,7.0,18.0,83,-99.99,,,-99.99,,2013-07-14 10:42:00,
2013-07-14 06:53:00,77.0,71.0,-100.00,East,87,6.0,15.0,82,-99.99,,,-99.99,,2013-07-14 10:53:00,
2013-07-14 07:02:00,78.0,72.0,-100.00,ENE,66,6.0,13.0,81,-99.99,,,-99.99,,2013-07-14 11:02:00,
2013-07-14 07:11:00,77.0,70.0,-100.00,SSE,160,7.0,13.0,80,-99.99,,,-99.99,,2013-07-14 11:11:00,
2013-07-14 07:22:00,78.0,71.0,-100.00,SSW,204,8.0,18.0,80,-99.99,,,-99.99,,2013-07-14 11:22:00,
2013-07-14 07:32:00,78.0,72.0,-100.00,South,186,6.0,10.0,81,-99.99,,,-99.99,,2013-07-14 11:32:00,
2013-07-14 07:43:00,78.0,71.0,-100.00,SSW,194,5.0,12.0,80,-99.99,,,-99.99,,2013-07-14 11:43:00,
2013-07-14 07:53:00,78.0,71.0,-100.00,WSW,246,5.0,11.0,79,-99.99,,,-99.99,,2013-07-14 11:53:00,
2013-07-14 08:02:00,78.0,71.0,-100.00,NE,52,3.0,8.0,79,-99.99,,,-99.99,,2013-07-14 12:02:00,
2013-07-14 08:11:00,79.0,72.0,-100.00,SW,221,3.0,8.0,78,-99.99,,,-99.99,,2013-07-14 12:11:00,
2013-07-14 08:22:00,79.0,72.0,-100.00,East,80,3.0,5.0,78,-99.99,,,-99.99,,2013-07-14 12:22:00,
2013-07-14 08:33:00,80.0,72.0,-100.00,South,187,4.0,8.0,77,-99.99,,,-99.99,,2013-07-14 12:33:00,
2013-07-14 08:52:00,80.0,72.0,-100.00,South,190,3.0,8.0,77,-99.99,,,-99.99,,2013-07-14 12:52:00,
2013-07-14 09:01:00,80.0,72.0,-100.00,SSW,198,6.0,12.0,76,-99.99,,,-99.99,,2013-07-14 13:01:00,
2013-07-14 09:11:00,80.0,72.0,-100.00,South,187,6.0,12.0,76,-99.99,,,-99.99,,2013-07-14 13:11:00,
2013-07-14 09:22:00,80.0,72.0,-100.00,SSW,207,4.0,9.0,76,-99.99,,,-99.99,,2013-07-14 13:22:00,
2013-07-14 09:32:00,80.0,72.0,-100.00,SSW,203,5.0,10.0,76,-99.99,,,-99.99,,2013-07-14 13:32:00,
2013-07-14 09:42:00,81.0,73.0,-100.00,South,183,3.0,9.0,76,-99.99,,,-99.99,,2013-07-14 13:42:00,
2013-07-14 09:53:00,81.0,73.0,-100.00,South,183,3.0,6.0,76,-99.99,,,-99.99,,2013-07-14 13:53:00,
2013-07-14 10:02:00,81.0,73.0,-100.00,South,186,3.0,9.0,76,-99.99,,,-99.99,,2013-07-14 14:02:00,
2013-07-14 10:11:00,81.0,72.0,-100.00,SSE,160,4.0,8.0,74,-99.99,,,-99.99,,2013-07-14 14:11:00,
2013-07-14 10:23:00,81.0,71.0,-100.00,SE,135,5.0,12.0,71,-99.99,,,-99.99,,2013-07-14 14:23:00,
2013-07-14 10:33:00,82.0,71.0,-100.00,ESE,113,5.0,11.0,69,-99.99,,,-99.99,,2013-07-14 14:33:00,
2013-07-14 10:43:00,82.0,71.0,-100.00,SE,143,5.0,10.0,69,-99.99,,,-99.99,,2013-07-14 14:43:00,
2013-07-14 10:53:00,82.0,71.0,-100.00,North,8,4.0,9.0,70,-99.99,,,-99.99,,2013-07-14 14:53:00,
2013-07-14 11:01:00,83.0,72.0,-100.00,NE,41,5.0,10.0,70,-99.99,,,-99.99,,2013-07-14 15:01:00,
2013-07-14 11:12:00,83.0,73.0,-100.00,NNE,21,5.0,9.0,71,-99.99,,,-99.99,,2013-07-14 15:12:00,
2013-07-14 11:22:00,82.0,71.0,-100.00,ESE,118,5.0,10.0,70,-99.99,,,-99.99,,2013-07-14 15:22:00,
2013-07-14 11:32:00,83.0,73.0,-100.00,East,89,5.0,10.0,71,-99.99,,,-99.99,,2013-07-14 15:32:00,
2013-07-14 11:42:00,83.0,73.0,-100.00,SE,136,5.0,12.0,71,-99.99,,,-99.99,,2013-07-14 15:42:00,
2013-07-14 11:53:00,83.0,72.0,-100.00,South,173,5.0,12.0,69,-99.99,,,-99.99,,2013-07-14 15:53:00,
2013-07-14 12:01:00,84.0,71.0,-100.00,SE,139,5.0,11.0,66,-99.99,,,-99.99,,2013-07-14 16:01:00,
2013-07-14 12:11:00,83.0,71.0,-100.00,ESE,114,6.0,13.0,67,-99.99,,,-99.99,,2013-07-14 16:11:00,
2013-07-14 12:32:00,83.0,72.0,-100.00,NW,314,4.0,9.0,69,-99.99,,,-99.99,,2013-07-14 16:32:00,
2013-07-14 12:43:00,83.0,72.0,-100.00,South,179,5.0,10.0,69,-99.99,,,-99.99,,2013-07-14 16:43:00,
2013-07-14 13:02:00,84.0,71.0,-100.00,SSW,210,4.0,10.0,66,-99.99,,,-99.99,,2013-07-14 17:02:00,
2013-07-14 13:11:00,84.0,71.0,-100.00,SE,135,5.0,11.0,65,-99.99,,,-99.99,,2013-07-14 17:11:00,
2013-07-14 13:22:00,84.0,70.0,-100.00,ESE,111,4.0,10.0,64,-99.99,,,-99.99,,2013-07-14 17:22:00,
2013-07-14 13:32:00,84.0,70.0,-100.00,South,184,4.0,9.0,64,-99.99,,,-99.99,,2013-07-14 17:32:00,
2013-07-14 13:43:00,84.0,71.0,-100.00,SSW,200,5.0,12.0,65,-99.99,,,-99.99,,2013-07-14 17:43:00,
2013-07-14 13:53:00,84.0,70.0,-100.00,South,179,6.0,11.0,64,-99.99,,,-99.99,,2013-07-14 17:53:00,
2013-07-14 14:01:00,83.0,70.0,-100.00,SSE,150,8.0,14.0,66,-99.99,,,-99.99,,2013-07-14 18:01:00,
2013-07-14 14:11:00,82.0,69.0,-100.00,SE,145,8.0,15.0,66,-99.99,,,-99.99,,2013-07-14 18:11:00,
2013-07-14 14:22:00,82.0,70.0,-100.00,SE,145,13.0,17.0,68,-99.99,,,-99.99,,2013-07-14 18:22:00,
2013-07-14 14:32:00,82.0,71.0,-100.00,SE,145,12.0,16.0,69,-99.99,,,-99.99,,2013-07-14 18:32:00,
2013-07-14 14:42:00,81.0,71.0,-100.00,SE,125,14.0,16.0,71,-99.99,,,-99.99,,2013-07-14 18:42:00,
2013-07-14 14:52:00,81.0,70.0,-100.00,SE,145,12.0,18.0,70,-99.99,,,-99.99,,2013-07-14 18:52:00,
2013-07-14 15:01:00,81.0,71.0,-100.00,SSE,150,15.0,18.0,71,-99.99,,,-99.99,,2013-07-14 19:01:00,
2013-07-14 15:12:00,81.0,72.0,-100.00,SE,143,15.0,19.0,73,-99.99,,,-99.99,,2013-07-14 19:12:00,
2013-07-14 15:22:00,81.0,72.0,-100.00,SE,139,13.0,19.0,74,-99.99,,,-99.99,,2013-07-14 19:22:00,
2013-07-14 15:32:00,81.0,72.0,-100.00,SE,138,12.0,18.0,74,-99.99,,,-99.99,,2013-07-14 19:32:00,
2013-07-14 15:43:00,80.0,71.0,-100.00,SE,141,15.0,18.0,74,-99.99,,,-99.99,,2013-07-14 19:43:00,
2013-07-14 15:53:00,81.0,72.0,-100.00,ESE,111,13.0,20.0,73,-99.99,,,-99.99,,2013-07-14 19:53:00,
2013-07-14 16:02:00,81.0,72.0,-100.00,SE,143,15.0,21.0,73,-99.99,,,-99.99,,2013-07-14 20:02:00,
2013-07-14 16:11:00,80.0,71.0,-100.00,SE,127,16.0,21.0,73,-99.99,,,-99.99,,2013-07-14 20:11:00,
2013-07-14 16:22:00,81.0,72.0,-100.00,SE,132,19.0,23.0,73,-99.99,,,-99.99,,2013-07-14 20:22:00,
2013-07-14 16:32:00,81.0,72.0,-100.00,SE,124,16.0,23.0,73,-99.99,,,-99.99,,2013-07-14 20:32:00,
2013-07-14 16:43:00,81.0,73.0,-100.00,SE,124,13.0,23.0,76,-99.99,,,-99.99,,2013-07-14 20:43:00,
2013-07-14 16:53:00,81.0,73.0,-100.00,ESE,110,11.0,21.0,76,-99.99,,,-99.99,,2013-07-14 20:53:00,
2013-07-14 17:02:00,81.0,73.0,-100.00,ESE,113,11.0,20.0,77,-99.99,,,-99.99,,2013-07-14 21:02:00,
2013-07-14 17:11:00,80.0,72.0,-100.00,East,93,13.0,21.0,76,-99.99,,,-99.99,,2013-07-14 21:11:00,
2013-07-14 17:22:00,81.0,73.0,-100.00,SE,132,11.0,17.0,77,-99.99,,,-99.99,,2013-07-14 21:22:00,
2013-07-14 17:32:00,81.0,73.0,-100.00,SE,139,9.0,20.0,77,-99.99,,,-99.99,,2013-07-14 21:32:00,
2013-07-14 17:43:00,81.0,73.0,-100.00,ENE,69,9.0,17.0,78,-99.99,,,-99.99,,2013-07-14 21:43:00,
2013-07-14 17:52:00,81.0,73.0,-100.00,ESE,117,10.0,17.0,77,-99.99,,,-99.99,,2013-07-14 21:52:00,
2013-07-14 18:01:00,80.0,72.0,-100.00,SE,132,11.0,17.0,77,-99.99,,,-99.99,,2013-07-14 22:01:00,
2013-07-14 18:11:00,80.0,72.0,-100.00,ESE,113,10.0,16.0,76,-99.99,,,-99.99,,2013-07-14 22:11:00,
2013-07-14 18:22:00,81.0,72.0,-100.00,East,96,9.0,15.0,73,-99.99,,,-99.99,,2013-07-14 22:22:00,
2013-07-14 18:32:00,81.0,71.0,-100.00,East,93,7.0,15.0,71,-99.99,,,-99.99,,2013-07-14 22:32:00,
2013-07-14 18:42:00,81.0,72.0,-100.00,East,82,12.0,15.0,73,-99.99,,,-99.99,,2013-07-14 22:42:00,
2013-07-14 18:53:00,80.0,69.0,-100.00,East,82,10.0,13.0,70,-99.99,,,-99.99,,2013-07-14 22:53:00,
2013-07-14 19:01:00,82.0,72.0,-100.00,NE,42,4.0,9.0,71,-99.99,,,-99.99,,2013-07-14 23:01:00,
2013-07-14 19:11:00,79.0,70.0,-100.00,NW,314,8.0,19.0,74,-99.99,,,-99.99,,2013-07-14 23:11:00,
2013-07-14 19:22:00,73.0,69.0,-100.00,NW,309,20.0,26.0,88,-99.99,,,-99.99,,2013-07-14 23:22:00,
2013-07-14 19:32:00,73.0,70.0,-100.00,NW,308,16.0,23.0,90,-99.99,,,-99.99,,2013-07-14 23:32:00,
2013-07-14 19:42:00,72.0,69.0,-100.00,NW,319,16.0,22.0,91,-99.99,,,-99.99,,2013-07-14 23:42:00,
2013-07-14 19:53:00,71.0,69.0,-100.00,NNW,338,17.0,24.0,92,-99.99,,,-99.99,,2013-07-14 23:53:00,
2013-07-14 20:02:00,71.0,69.0,-100.00,NW,311,17.0,25.0,93,-99.99,,,-99.99,,2013-07-15 00:02:00,
2013-07-14 20:11:00,71.0,69.0,-100.00,NNW,335,17.0,23.0,92,-99.99,,,-99.99,,2013-07-15 00:11:00,
2013-07-14 20:22:00,71.0,68.0,-100.00,North,8,15.0,22.0,90,-99.99,,,-99.99,,2013-07-15 00:22:00,
2013-07-14 20:32:00,72.0,69.0,-100.00,NNW,332,17.0,21.0,91,-99.99,,,-99.99,,2013-07-15 00:32:00,
2013-07-14 20:43:00,72.0,69.0,-100.00,NNW,335,16.0,20.0,91,-99.99,,,-99.99,,2013-07-15 00:43:00,
2013-07-14 20:53:00,72.0,70.0,-100.00,North,352,16.0,21.0,94,-99.99,,,-99.99,,2013-07-15 00:53:00,
2013-07-14 21:01:00,71.0,69.0,-100.00,NNW,345,18.0,22.0,93,-99.99,,,-99.99,,2013-07-15 01:01:00,
2013-07-14 21:11:00,72.0,70.0,-100.00,North,352,13.0,19.0,93,-99.99,,,-99.99,,2013-07-15 01:11:00,
2013-07-14 21:22:00,71.0,69.0,-100.00,North,356,15.0,19.0,92,-99.99,,,-99.99,,2013-07-15 01:22:00,
2013-07-14 21:32:00,72.0,70.0,-100.00,North,4,17.0,20.0,92,-99.99,,,-99.99,,2013-07-15 01:32:00,
2013-07-14 21:43:00,73.0,70.0,-100.00,North,1,16.0,19.0,90,-99.99,,,-99.99,,2013-07-15 01:43:00,
2013-07-14 21:53:00,73.0,69.0,-100.00,North,4,14.0,16.0,87,-99.99,,,-99.99,,2013-07-15 01:53:00,
2013-07-14 22:02:00,74.0,70.0,-100.00,North,7,14.0,16.0,86,-99.99,,,-99.99,,2013-07-15 02:02:00,
2013-07-14 22:11:00,75.0,69.0,-100.00,North,0,10.0,11.0,82,-99.99,,,-99.99,,2013-07-15 02:11:00,
2013-07-14 22:22:00,76.0,69.0,-100.00,North,1,9.0,11.0,79,-99.99,,,-99.99,,2013-07-15 02:22:00,
2013-07-14 22:32:00,77.0,69.0,-100.00,NNE,20,5.0,8.0,77,-99.99,,,-99.99,,2013-07-15 02:32:00,
2013-07-14 23:02:00,77.0,69.0,-100.00,North,0,0.0,0.0,76,-99.99,,,-99.99,,2013-07-15 03:02:00,
2013-07-14 23:11:00,77.0,69.0,-100.00,ENE,60,3.0,7.0,77,-99.99,,,-99.99,,2013-07-15 03:11:00,
2013-07-14 23:22:00,76.0,69.0,-100.00,ESE,111,2.0,5.0,80,-99.99,,,-99.99,,2013-07-15 03:22:00,
2013-07-14 23:32:00,75.0,70.0,-100.00,NE,49,5.0,11.0,84,-99.99,,,-99.99,,2013-07-15 03:32:00,
2013-07-14 23:43:00,76.0,72.0,-100.00,NE,39,5.0,11.0,86,-99.99,,,-99.99,,2013-07-15 03:43:00,
2013-07-14 23:53:00,76.0,72.0,-100.00,NE,52,7.0,13.0,87,-99.99,,,-99.99,,2013-07-15 03:53:00,